createdAt,value
2017-06-20T00:00:57.677Z,18.70
2017-06-20T00:03:25.757Z,18.80
2017-06-20T00:05:53.837Z,18.80
2017-06-20T00:08:21.928Z,18.70
2017-06-20T00:10:50.000Z,18.70
2017-06-20T00:13:18.081Z,18.70
2017-06-20T00:15:46.159Z,18.70
2017-06-20T00:18:14.241Z,18.70
2017-06-20T00:20:42.323Z,18.40
2017-06-20T00:23:10.413Z,18.10
2017-06-20T00:25:38.496Z,18.30
2017-06-20T00:28:06.584Z,18.40
2017-06-20T00:30:34.675Z,18.50
2017-06-20T00:33:02.748Z,18.50
2017-06-20T00:35:30.836Z,18.50
2017-06-20T00:37:58.917Z,18.20
2017-06-20T00:40:26.999Z,18.20
2017-06-20T00:42:55.075Z,18.20
2017-06-20T00:45:23.169Z,18.10
2017-06-20T00:47:51.245Z,18.20
2017-06-20T00:50:19.325Z,18.10
2017-06-20T00:52:47.403Z,17.80
2017-06-20T00:55:15.508Z,17.90
2017-06-20T00:57:43.618Z,17.70
2017-06-20T01:00:11.752Z,17.40
2017-06-20T01:02:39.843Z,17.70
2017-06-20T01:05:08.027Z,17.80
2017-06-20T01:07:36.128Z,17.80
2017-06-20T01:10:04.216Z,17.90
2017-06-20T01:12:32.313Z,17.90
2017-06-20T01:15:00.503Z,17.90
2017-06-20T01:17:28.783Z,17.80
2017-06-20T01:19:56.928Z,17.90
2017-06-20T01:22:25.004Z,17.80
2017-06-20T01:24:53.085Z,17.80
2017-06-20T01:27:21.170Z,17.80
2017-06-20T01:29:49.252Z,17.90
2017-06-20T01:32:17.329Z,17.90
2017-06-20T01:34:45.419Z,17.80
2017-06-20T01:37:13.500Z,17.70
2017-06-20T01:39:41.595Z,17.80
2017-06-20T01:42:09.679Z,17.90
2017-06-20T01:44:37.847Z,17.80
2017-06-20T01:47:05.922Z,17.40
2017-06-20T01:49:33.996Z,17.50
2017-06-20T01:52:02.077Z,17.60
2017-06-20T01:54:30.153Z,17.30
2017-06-20T01:56:58.231Z,17.30
2017-06-20T01:59:26.309Z,17.40
2017-06-20T02:01:54.406Z,17.50
2017-06-20T02:04:22.475Z,17.50
2017-06-20T02:06:50.561Z,17.50
2017-06-20T02:09:18.643Z,17.50
2017-06-20T02:11:46.720Z,17.50
2017-06-20T02:14:14.799Z,17.30
2017-06-20T02:16:42.879Z,17.10
2017-06-20T02:19:10.956Z,16.90
2017-06-20T02:21:39.046Z,17.00
2017-06-20T02:24:07.137Z,17.10
2017-06-20T02:26:35.203Z,17.10
2017-06-20T02:29:03.299Z,16.70
2017-06-20T02:31:31.383Z,16.80
2017-06-20T02:33:59.468Z,16.80
2017-06-20T02:36:27.539Z,16.90
2017-06-20T02:38:55.615Z,16.90
2017-06-20T02:41:23.700Z,16.90
2017-06-20T02:43:51.783Z,16.80
2017-06-20T02:46:19.867Z,16.80
2017-06-20T02:48:47.943Z,16.90
2017-06-20T02:51:16.052Z,16.80
2017-06-20T02:53:44.130Z,16.70
2017-06-20T02:56:12.207Z,16.70
2017-06-20T02:58:40.295Z,16.70
2017-06-20T03:01:08.375Z,16.70
2017-06-20T03:03:36.468Z,16.60
2017-06-20T03:06:04.552Z,16.70
2017-06-20T03:08:32.639Z,16.70
2017-06-20T03:11:12.538Z,16.70
2017-06-20T03:13:40.629Z,16.80
2017-06-20T03:16:08.712Z,16.90
2017-06-20T03:18:36.783Z,16.90
2017-06-20T03:21:04.871Z,16.80
2017-06-20T03:23:32.943Z,16.80
2017-06-20T03:26:01.022Z,16.90
2017-06-20T03:28:29.099Z,16.80
2017-06-20T03:30:57.180Z,16.70
2017-06-20T03:33:25.264Z,16.70
2017-06-20T03:35:53.347Z,16.70
2017-06-20T03:38:21.451Z,16.70
2017-06-20T03:40:49.528Z,16.80
2017-06-20T03:43:17.609Z,16.90
2017-06-20T03:45:45.687Z,16.70
2017-06-20T03:48:13.771Z,16.70
2017-06-20T03:50:41.852Z,16.70
2017-06-20T03:53:09.937Z,16.80
2017-06-20T03:55:38.024Z,16.80
2017-06-20T03:58:06.109Z,16.90
2017-06-20T04:00:34.187Z,17.00
2017-06-20T04:03:02.275Z,17.10
2017-06-20T04:05:30.356Z,17.10
2017-06-20T04:07:58.440Z,17.20
2017-06-20T04:10:26.524Z,17.20
2017-06-20T04:12:54.605Z,17.10
2017-06-20T04:15:22.700Z,17.10
2017-06-20T04:17:50.784Z,16.70
2017-06-20T04:20:18.882Z,16.60
2017-06-20T04:22:46.964Z,16.70
2017-06-20T04:25:15.048Z,16.60
2017-06-20T04:27:43.129Z,16.60
2017-06-20T04:30:11.200Z,16.60
2017-06-20T04:32:39.300Z,16.50
2017-06-20T04:35:07.395Z,16.40
2017-06-20T04:37:35.506Z,16.70
2017-06-20T04:40:03.584Z,17.00
2017-06-20T04:42:31.703Z,17.20
2017-06-20T04:44:59.797Z,17.20
2017-06-20T04:47:27.855Z,17.40
2017-06-20T04:49:55.951Z,17.80
2017-06-20T04:52:24.040Z,18.10
2017-06-20T04:54:52.127Z,18.40
2017-06-20T04:57:20.217Z,18.60
2017-06-20T04:59:48.320Z,18.70
2017-06-20T05:02:16.403Z,18.70
2017-06-20T05:04:44.489Z,18.90
2017-06-20T05:07:12.571Z,19.20
2017-06-20T05:09:40.654Z,19.40
2017-06-20T05:12:08.744Z,19.50
2017-06-20T05:14:36.823Z,19.40
2017-06-20T05:17:04.917Z,19.40
2017-06-20T05:19:32.997Z,19.50
2017-06-20T05:22:01.188Z,19.80
2017-06-20T05:24:29.464Z,20.20
2017-06-20T05:26:57.725Z,20.50
2017-06-20T05:29:25.831Z,20.80
2017-06-20T05:31:53.955Z,21.00
2017-06-20T05:34:22.159Z,21.10
2017-06-20T05:36:50.428Z,21.20
2017-06-20T05:39:18.604Z,21.20
2017-06-20T05:41:47.463Z,21.80
2017-06-20T05:44:15.551Z,21.80
2017-06-20T05:46:43.731Z,21.90
2017-06-20T05:49:11.816Z,22.10
2017-06-20T05:51:39.920Z,22.20
2017-06-20T05:54:08.019Z,22.10
2017-06-20T05:56:36.107Z,22.40
2017-06-20T05:59:04.193Z,22.70
2017-06-20T06:01:32.504Z,22.70
2017-06-20T06:04:00.588Z,22.50
2017-06-20T06:06:28.695Z,22.80
2017-06-20T06:08:56.783Z,23.30
2017-06-20T06:11:24.883Z,23.50
2017-06-20T06:13:52.983Z,23.90
2017-06-20T06:16:21.078Z,24.30
2017-06-20T06:18:49.167Z,24.40
2017-06-20T06:21:17.241Z,24.50
2017-06-20T06:23:45.559Z,24.50
2017-06-20T06:26:13.641Z,24.50
2017-06-20T06:28:41.718Z,24.60
2017-06-20T06:31:09.808Z,24.90
2017-06-20T06:33:37.892Z,25.10
2017-06-20T06:36:05.973Z,25.20
2017-06-20T06:38:34.060Z,25.30
2017-06-20T06:41:02.149Z,25.00
2017-06-20T06:43:30.235Z,24.90
2017-06-20T06:45:58.374Z,25.20
2017-06-20T06:48:26.456Z,25.20
2017-06-20T06:50:54.572Z,25.70
2017-06-20T06:53:22.644Z,26.10
2017-06-20T06:55:50.744Z,25.70
2017-06-20T06:58:18.840Z,25.40
2017-06-20T07:00:46.919Z,26.00
2017-06-20T07:03:15.011Z,26.30
2017-06-20T07:05:43.107Z,26.30
2017-06-20T07:08:11.202Z,26.50
2017-06-20T07:10:39.275Z,25.70
2017-06-20T07:13:07.374Z,25.70
2017-06-20T07:15:35.440Z,26.40
2017-06-20T07:18:03.531Z,26.70
2017-06-20T07:20:31.667Z,27.00
2017-06-20T07:22:59.717Z,27.00
2017-06-20T07:25:27.819Z,27.10
2017-06-20T07:27:55.905Z,27.20
2017-06-20T07:30:24.009Z,27.40
2017-06-20T07:32:52.314Z,27.60
2017-06-20T07:35:20.409Z,27.60
2017-06-20T07:37:48.496Z,27.70
2017-06-20T07:40:16.586Z,28.00
2017-06-20T07:42:44.663Z,28.00
2017-06-20T07:45:12.770Z,28.10
2017-06-20T07:47:40.846Z,28.10
2017-06-20T07:50:08.933Z,28.30
2017-06-20T07:52:37.030Z,28.50
2017-06-20T07:55:05.124Z,28.80
2017-06-20T07:57:33.205Z,28.80
2017-06-20T08:00:01.287Z,28.40
2017-06-20T08:02:29.367Z,28.90
2017-06-20T08:04:57.448Z,29.20
2017-06-20T08:07:25.539Z,29.30
2017-06-20T08:09:53.629Z,29.50
2017-06-20T08:12:21.729Z,29.60
2017-06-20T08:14:49.811Z,29.70
2017-06-20T08:17:17.896Z,28.90
2017-06-20T08:19:45.996Z,29.40
2017-06-20T08:22:14.093Z,29.90
2017-06-20T08:24:42.173Z,30.30
2017-06-20T08:27:10.279Z,30.50
2017-06-20T08:29:38.376Z,30.60
2017-06-20T08:32:06.472Z,30.80
2017-06-20T08:34:34.568Z,30.80
2017-06-20T08:37:08.636Z,30.80
2017-06-20T08:39:36.727Z,30.70
2017-06-20T08:42:04.820Z,31.10
2017-06-20T08:44:32.899Z,31.00
2017-06-20T08:47:00.979Z,31.00
2017-06-20T08:49:29.070Z,31.50
2017-06-20T08:51:57.151Z,31.90
2017-06-20T08:54:25.251Z,32.10
2017-06-20T08:56:53.373Z,32.00
2017-06-20T08:59:21.472Z,32.00
2017-06-20T09:01:49.559Z,32.40
2017-06-20T09:04:17.660Z,32.50
2017-06-20T09:06:45.744Z,32.90
2017-06-20T09:09:13.848Z,32.80
2017-06-20T09:11:41.930Z,32.70
2017-06-20T09:14:10.011Z,32.80
2017-06-20T09:16:38.103Z,31.60
2017-06-20T09:19:06.183Z,32.00
2017-06-20T09:21:34.264Z,32.70
2017-06-20T09:24:02.351Z,33.20
2017-06-20T09:26:30.450Z,32.90
2017-06-20T09:28:58.531Z,33.50
2017-06-20T09:31:26.632Z,33.80
2017-06-20T09:33:54.708Z,34.20
2017-06-20T09:36:22.817Z,34.30
2017-06-20T09:38:50.904Z,34.20
2017-06-20T09:41:18.988Z,34.20
2017-06-20T09:43:47.100Z,33.70
2017-06-20T09:46:15.176Z,33.40
2017-06-20T09:48:43.260Z,33.30
2017-06-20T09:51:11.336Z,33.90
2017-06-20T09:53:39.437Z,34.30
2017-06-20T09:56:07.568Z,34.50
2017-06-20T09:58:35.659Z,34.50
2017-06-20T10:01:03.749Z,34.60
2017-06-20T10:03:31.820Z,35.00
2017-06-20T10:05:59.912Z,35.00
2017-06-20T10:08:28.003Z,34.80
2017-06-20T10:10:56.093Z,34.90
2017-06-20T10:13:24.167Z,34.70
2017-06-20T10:15:52.273Z,34.40
2017-06-20T10:18:20.359Z,35.20
2017-06-20T10:20:48.450Z,35.00
2017-06-20T10:23:16.535Z,34.90
2017-06-20T10:25:44.611Z,32.50
2017-06-20T10:28:12.701Z,33.50
2017-06-20T10:30:40.777Z,33.60
2017-06-20T10:33:08.872Z,34.30
2017-06-20T10:35:36.951Z,34.90
2017-06-20T10:38:05.052Z,35.00
2017-06-20T10:40:33.130Z,34.40
2017-06-20T10:43:01.205Z,35.10
2017-06-20T10:45:29.288Z,35.90
2017-06-20T10:47:57.382Z,35.30
2017-06-20T10:50:25.467Z,35.20
2017-06-20T10:52:53.564Z,35.50
2017-06-20T10:55:21.649Z,35.20
2017-06-20T10:57:49.724Z,34.80
2017-06-20T11:00:17.806Z,35.60
2017-06-20T11:02:45.891Z,35.90
2017-06-20T11:05:13.997Z,36.20
2017-06-20T11:07:42.077Z,36.10
2017-06-20T11:10:10.156Z,34.60
2017-06-20T11:12:38.249Z,34.20
2017-06-20T11:15:06.324Z,32.20
2017-06-20T11:17:34.417Z,34.00
2017-06-20T11:20:02.503Z,34.20
2017-06-20T11:22:30.602Z,33.30
2017-06-20T11:24:58.675Z,33.80
2017-06-20T11:27:26.768Z,34.00
2017-06-20T11:29:55.633Z,34.80
2017-06-20T11:32:23.715Z,34.70
2017-06-20T11:34:52.717Z,34.10
2017-06-20T11:37:20.796Z,34.10
2017-06-20T11:39:48.883Z,34.70
2017-06-20T11:42:16.955Z,34.60
2017-06-20T11:44:45.033Z,34.60
2017-06-20T11:47:13.112Z,35.00
2017-06-20T11:49:41.191Z,35.10
2017-06-20T11:52:09.280Z,33.70
2017-06-20T11:54:37.396Z,32.50
2017-06-20T11:57:05.473Z,33.90
2017-06-20T11:59:33.552Z,34.80
2017-06-20T12:02:01.639Z,35.40
2017-06-20T12:04:29.736Z,35.40
2017-06-20T12:06:57.829Z,35.00
2017-06-20T12:09:25.916Z,35.30
2017-06-20T12:11:54.008Z,33.30
2017-06-20T12:14:22.096Z,33.30
2017-06-20T12:16:50.188Z,33.50
2017-06-20T12:19:18.273Z,34.00
2017-06-20T12:21:46.402Z,34.20
2017-06-20T12:24:14.476Z,33.60
2017-06-20T12:26:42.855Z,33.80
2017-06-20T12:29:10.957Z,33.40
2017-06-20T12:31:39.137Z,34.30
2017-06-20T12:34:07.256Z,35.10
2017-06-20T12:36:35.334Z,34.90
2017-06-20T12:39:03.419Z,35.30
2017-06-20T12:41:31.498Z,34.10
2017-06-20T12:43:59.581Z,35.30
2017-06-20T12:46:27.668Z,35.70
2017-06-20T12:48:55.767Z,34.30
2017-06-20T12:51:23.848Z,34.40
2017-06-20T12:53:51.938Z,35.20
2017-06-20T12:56:20.018Z,34.00
2017-06-20T12:58:48.105Z,32.60
2017-06-20T13:01:16.205Z,33.70
2017-06-20T13:03:44.280Z,34.50
2017-06-20T13:06:12.363Z,35.10
2017-06-20T13:08:40.440Z,35.00
2017-06-20T13:11:08.541Z,35.20
2017-06-20T13:13:36.614Z,33.50
2017-06-20T13:16:04.711Z,34.40
2017-06-20T13:18:32.786Z,35.00
2017-06-20T13:21:00.871Z,35.40
2017-06-20T13:23:28.962Z,33.70
2017-06-20T13:25:57.047Z,34.20
2017-06-20T13:28:25.137Z,34.40
2017-06-20T13:30:53.215Z,34.50
2017-06-20T13:33:21.307Z,34.50
2017-06-20T13:35:49.390Z,33.20
2017-06-20T13:38:17.478Z,33.20
2017-06-20T13:40:45.553Z,33.90
2017-06-20T13:43:13.652Z,34.00
2017-06-20T13:45:41.737Z,33.90
2017-06-20T13:48:09.852Z,33.70
2017-06-20T13:50:37.914Z,33.20
2017-06-20T13:53:05.988Z,33.20
2017-06-20T13:55:34.077Z,33.10
2017-06-20T13:58:02.171Z,33.30
2017-06-20T14:00:30.268Z,33.30
2017-06-20T14:02:58.538Z,33.50
2017-06-20T14:05:26.638Z,32.20
2017-06-20T14:07:54.733Z,32.80
2017-06-20T14:10:22.831Z,33.10
2017-06-20T14:12:50.913Z,32.90
2017-06-20T14:15:19.001Z,33.00
2017-06-20T14:17:47.984Z,33.10
2017-06-20T14:20:16.249Z,33.10
2017-06-20T14:22:44.336Z,33.10
2017-06-20T14:25:12.419Z,33.20
2017-06-20T14:27:40.520Z,33.30
2017-06-20T14:30:08.601Z,33.20
2017-06-20T14:32:36.701Z,33.30
2017-06-20T14:35:04.782Z,33.20
2017-06-20T14:37:32.857Z,32.90
2017-06-20T14:40:00.948Z,32.80
2017-06-20T14:42:29.049Z,32.80
2017-06-20T14:44:57.131Z,32.70
2017-06-20T14:47:25.204Z,32.50
2017-06-20T14:49:53.298Z,32.20
2017-06-20T14:52:21.381Z,32.10
2017-06-20T14:54:49.463Z,32.00
2017-06-20T14:57:17.555Z,32.30
2017-06-20T14:59:45.637Z,32.00
2017-06-20T15:02:13.715Z,32.20
2017-06-20T15:04:41.807Z,32.30
2017-06-20T15:07:09.887Z,32.20
2017-06-20T15:09:37.999Z,32.20
2017-06-20T15:12:06.078Z,32.20
2017-06-20T15:14:34.177Z,32.10
2017-06-20T15:17:02.259Z,32.00
2017-06-20T15:19:30.331Z,31.90
2017-06-20T15:21:58.420Z,31.90
2017-06-20T15:24:26.551Z,31.80
2017-06-20T15:26:54.648Z,31.80
2017-06-20T15:29:22.736Z,31.80
2017-06-20T15:31:51.988Z,31.80
2017-06-20T15:34:20.120Z,31.80
2017-06-20T15:36:48.187Z,31.60
2017-06-20T15:39:16.272Z,31.60
2017-06-20T15:41:44.362Z,31.60
2017-06-20T15:44:12.439Z,31.40
2017-06-20T15:46:40.533Z,31.50
2017-06-20T15:49:08.623Z,31.40
2017-06-20T15:51:36.700Z,31.50
2017-06-20T15:54:04.787Z,31.40
2017-06-20T15:56:32.881Z,31.20
2017-06-20T15:59:01.196Z,31.20
2017-06-20T16:01:29.278Z,31.00
2017-06-20T16:03:57.352Z,31.10
2017-06-20T16:06:25.434Z,31.20
2017-06-20T16:08:53.514Z,31.20
2017-06-20T16:11:21.595Z,31.10
2017-06-20T16:13:49.687Z,31.20
2017-06-20T16:16:17.775Z,31.10
2017-06-20T16:18:45.859Z,31.10
2017-06-20T16:21:13.943Z,31.10
2017-06-20T16:23:42.019Z,31.00
2017-06-20T16:26:10.145Z,31.00
2017-06-20T16:28:38.227Z,31.00
2017-06-20T16:31:06.331Z,31.00
2017-06-20T16:33:34.595Z,30.90
2017-06-20T16:36:02.743Z,30.80
2017-06-20T16:38:30.843Z,30.80
2017-06-20T16:40:59.829Z,30.80
2017-06-20T16:43:28.104Z,30.80
2017-06-20T16:45:56.171Z,30.70
2017-06-20T16:48:24.267Z,30.60
2017-06-20T16:50:52.358Z,30.60
2017-06-20T16:53:20.440Z,30.60
2017-06-20T16:55:48.519Z,30.60
2017-06-20T16:58:16.612Z,30.50
2017-06-20T17:00:44.696Z,30.40
2017-06-20T17:03:12.771Z,30.30
2017-06-20T17:05:40.869Z,30.20
2017-06-20T17:08:08.939Z,30.20
2017-06-20T17:10:37.023Z,30.20
2017-06-20T17:13:05.114Z,30.20
2017-06-20T17:15:33.194Z,30.20
2017-06-20T17:18:01.272Z,30.10
2017-06-20T17:20:29.377Z,30.20
2017-06-20T17:22:57.457Z,30.10
2017-06-20T17:25:25.539Z,30.10
2017-06-20T17:27:53.628Z,30.00
2017-06-20T17:30:21.728Z,30.10
2017-06-20T17:32:49.815Z,29.90
2017-06-20T17:35:18.795Z,29.90
2017-06-20T17:37:47.063Z,29.90
2017-06-20T17:40:15.164Z,29.90
2017-06-20T17:42:43.256Z,29.90
2017-06-20T17:45:11.333Z,29.80
2017-06-20T17:47:39.445Z,29.70
2017-06-20T17:50:07.531Z,29.80
2017-06-20T17:52:35.611Z,29.90
2017-06-20T17:55:03.696Z,29.90
2017-06-20T17:57:31.780Z,29.90
2017-06-20T17:59:59.870Z,29.60
2017-06-20T18:02:27.989Z,29.60
2017-06-20T18:04:56.068Z,29.60
2017-06-20T18:07:24.147Z,29.50
2017-06-20T18:09:52.250Z,29.30
2017-06-20T18:12:20.328Z,29.30
2017-06-20T18:14:48.407Z,29.40
2017-06-20T18:17:16.495Z,29.40
2017-06-20T18:19:44.579Z,29.30
2017-06-20T18:22:12.675Z,29.30
2017-06-20T18:24:40.756Z,29.30
2017-06-20T18:27:08.858Z,29.20
2017-06-20T18:29:36.933Z,29.20
2017-06-20T18:32:05.017Z,29.10
2017-06-20T18:34:33.115Z,29.00
2017-06-20T18:37:01.204Z,28.90
2017-06-20T18:39:29.289Z,28.80
2017-06-20T18:41:57.386Z,28.80
2017-06-20T18:44:25.471Z,28.40
2017-06-20T18:46:53.563Z,28.20
2017-06-20T18:49:21.663Z,27.80
2017-06-20T18:51:49.766Z,27.50
2017-06-20T18:54:17.844Z,27.40
2017-06-20T18:56:45.924Z,27.40
2017-06-20T18:59:14.009Z,27.40
2017-06-20T19:01:42.096Z,27.20
2017-06-20T19:04:10.181Z,27.30
2017-06-20T19:09:35.139Z,27.10
2017-06-20T19:12:03.238Z,26.90
2017-06-20T19:14:31.329Z,26.70
2017-06-20T19:16:59.414Z,26.70
2017-06-20T19:19:27.507Z,26.40
2017-06-20T19:21:55.589Z,26.40
2017-06-20T19:24:23.756Z,26.20
2017-06-20T19:26:51.955Z,26.30
2017-06-20T19:29:20.048Z,26.10
2017-06-20T19:31:48.161Z,26.00
2017-06-20T19:34:16.250Z,25.90
2017-06-20T19:36:44.339Z,25.70
2017-06-20T19:39:12.414Z,25.60
2017-06-20T19:41:40.508Z,25.40
2017-06-20T19:44:08.588Z,25.30
2017-06-20T19:46:36.680Z,25.40
2017-06-20T19:49:04.763Z,25.40
2017-06-20T19:51:32.843Z,25.30
2017-06-20T19:54:00.927Z,25.20
2017-06-20T19:56:29.019Z,25.30
2017-06-20T19:58:57.109Z,25.00
2017-06-20T20:01:25.535Z,25.00
2017-06-20T20:03:53.626Z,25.00
2017-06-20T20:06:21.736Z,25.00
2017-06-20T20:08:49.780Z,24.90
2017-06-20T20:11:17.917Z,24.90
2017-06-20T20:13:46.015Z,24.80
2017-06-20T20:16:15.009Z,24.60
2017-06-20T20:18:43.111Z,24.60
2017-06-20T20:21:11.206Z,24.40
2017-06-20T20:23:39.282Z,24.40
2017-06-20T20:26:07.361Z,24.40
2017-06-20T20:28:35.439Z,24.40
2017-06-20T20:31:03.533Z,24.30
2017-06-20T20:33:31.615Z,24.20
2017-06-20T20:35:59.714Z,24.40
2017-06-20T20:38:27.792Z,24.30
2017-06-20T20:40:55.883Z,24.20
2017-06-20T20:43:23.981Z,24.00
2017-06-20T20:45:52.059Z,23.80
2017-06-20T20:48:20.151Z,23.40
2017-06-20T20:50:48.239Z,23.30
2017-06-20T20:53:16.345Z,23.50
2017-06-20T20:55:44.424Z,23.60
2017-06-20T20:58:12.516Z,23.70
2017-06-20T21:00:40.599Z,23.90
2017-06-20T21:03:09.504Z,23.70
2017-06-20T21:05:37.583Z,23.60
2017-06-20T21:08:05.664Z,23.60
2017-06-20T21:10:33.754Z,23.60
2017-06-20T21:13:01.827Z,23.30
2017-06-20T21:15:29.928Z,23.20
2017-06-20T21:17:58.009Z,23.30
2017-06-20T21:20:26.107Z,23.20
2017-06-20T21:22:54.195Z,23.20
2017-06-20T21:25:22.279Z,22.90
2017-06-20T21:27:50.364Z,22.90
2017-06-20T21:30:18.461Z,22.90
2017-06-20T21:32:46.573Z,22.80
2017-06-20T21:35:14.664Z,22.80
2017-06-20T21:37:42.778Z,22.90
2017-06-20T21:40:10.859Z,23.00
2017-06-20T21:42:38.945Z,23.00
2017-06-20T21:45:07.041Z,23.00
2017-06-20T21:47:35.119Z,23.10
2017-06-20T21:50:03.228Z,22.80
2017-06-20T21:52:31.317Z,22.80
2017-06-20T21:54:59.411Z,22.90
2017-06-20T21:57:27.503Z,22.90
2017-06-20T21:59:55.589Z,22.80
2017-06-20T22:02:23.692Z,22.80
2017-06-20T22:04:51.781Z,22.80
2017-06-20T22:07:19.863Z,22.80
2017-06-20T22:09:47.956Z,22.80
2017-06-20T22:12:16.053Z,22.70
2017-06-20T22:14:44.154Z,22.60
2017-06-20T22:17:12.248Z,22.50
2017-06-20T22:19:40.332Z,22.70
2017-06-20T22:22:08.420Z,22.80
2017-06-20T22:24:36.519Z,22.80
2017-06-20T22:27:04.601Z,22.80
2017-06-20T22:29:32.708Z,22.80
2017-06-20T22:32:00.800Z,22.70
2017-06-20T22:34:28.907Z,22.60
2017-06-20T22:36:57.002Z,22.20
2017-06-20T22:39:25.099Z,21.80
2017-06-20T22:41:53.188Z,21.50
2017-06-20T22:44:21.278Z,21.40
2017-06-20T22:46:49.371Z,21.40
2017-06-20T22:49:17.472Z,21.30
2017-06-20T22:51:45.560Z,21.60
2017-06-20T22:54:13.652Z,21.70
2017-06-20T22:56:41.757Z,21.80
2017-06-20T22:59:09.848Z,21.90
2017-06-20T23:01:37.935Z,21.90
2017-06-20T23:04:06.024Z,21.80
2017-06-20T23:06:34.140Z,21.90
2017-06-20T23:09:02.236Z,21.70
2017-06-20T23:11:30.318Z,21.70
2017-06-20T23:13:58.415Z,21.80
2017-06-20T23:16:26.495Z,21.90
2017-06-20T23:18:54.633Z,21.80
2017-06-20T23:21:22.760Z,21.50
2017-06-20T23:23:50.829Z,21.30
2017-06-20T23:26:19.027Z,21.40
2017-06-20T23:28:47.196Z,21.20
2017-06-20T23:31:15.287Z,21.30
2017-06-20T23:33:44.148Z,21.40
2017-06-20T23:36:12.335Z,21.40
2017-06-20T23:38:40.611Z,21.50
2017-06-20T23:41:08.700Z,21.50
2017-06-20T23:43:37.691Z,21.50
2017-06-20T23:46:05.791Z,21.60
2017-06-20T23:48:33.907Z,21.50
2017-06-20T23:51:01.992Z,21.50
2017-06-20T23:53:30.088Z,21.40
2017-06-20T23:55:58.176Z,21.40
2017-06-20T23:58:26.269Z,21.30
